Minong, WI

9:44 AM CST on December 08, 2019 (GMT -0600)
Minong weathet | | Change Station
Active Advisory: Winter Weather Advisory

Elev 1085 ft 46.09 °N, 91.82 °W | Updated 45 seconds ago

Overcast
Overcast
34.7 °F
Feels Like 35 °F
N
1.6
Wind Variable Wind from NE
Gusts 3.1 mph

Today
High -- | Low -- °F
--% Chance of Precip.
Yesterday
High -- | Low -- °F
Precip. -- in
Pressure 29.74 in
Visibility 10.0 miles
Clouds Overcast 1200 ft
Windchill 35 °F
Dew Point 29 °F
Humidity 80%
Rainfall 0.04 in
Snow Depth Not available.
7:36 AM 4:21 PM
Waxing Gibbous, 87% visible
METAR KHYR 081453Z AUTO 29004KT 10SM OVC012 02/M02 A2970 RMK AO2 SLP069 T00171017 53020 $
Pressure 29.74 in
Visibility 10.0 miles
Clouds Overcast 1200 ft
Windchill 35 °F
Dew Point 29 °F
Humidity 80%
Rainfall 0.04 in
Snow Depth Not available.
7:36 AM 4:21 PM
Waxing Gibbous, 87% visible
METAR KHYR 081453Z AUTO 29004KT 10SM OVC012 02/M02 A2970 RMK AO2 SLP069 T00171017 53020 $

Get Your Daily Forecast Email!

Thanks for signing up!

Be on the lookout for a verification email in your inbox.

You'll start receiving severe weather alerts in your inbox..

×

10-Day Weather Forecast

Almanac

Astronomy

Dec. 08, 2019 Rise Set
Actual Time
Civil Twilight
Nautical Twilight
Astronomical Twilight
Moon
Length of Visible Light
Length of Day
Tomorrow will be .
, % of the Moon is Illuminated

Today's Extremes

State Highs State Lows

Community

WunderPhotos

Category 6

Welcome to Category 6. This is the collective home for Weather Underground's featured writeups by Dr. Jeff Masters (right), Bob Henson (left), Chris Burt, and other regular contributors.

Nearby

Air Quality

  Air Quality AQ Index Pollutant
Not available.

Snow Depth

Station Depth Elevation

Earthquake Activity

City Distance Mag. Time & Date
Minimum magnitude displayed is 2.5.

Coastal Water Temperatures

Place Temperature

Stations

Nearby Weather Stations

Station Location Temp. Windchill Dew Point Humidity Wind Precip. Elev Updated Type
                   

Watches & Warnings

Winter Weather Advisory
Issued: 7:52 AM CST Dec. 8, 2019 – National Weather Service

... Winter Weather Advisory remains in effect from midnight
tonight to 6 PM CST Monday...

* what... snow expected. Total snow accumulations of 4 to 8
inches.

* Where... Sawyer, price, Burnett and Washburn counties.

* When... from midnight tonight to 6 PM CST Monday.

* Impacts... plan for snow covered and slippery Road conditions,
along with reduced visibility, including during the Monday
morning commute.

Precautionary/preparedness actions...

Slow down and use caution while traveling.

The latest Road conditions can be obtained by calling 5 1 1. Road
conditions can also be found at 511mn.Org for Minnesota or
511wi.Gov for Wisconsin.